メインページ
METAR-TAF:

METAR-TAF

空港 :

ラルナカ, キプロス

ラルナカ国際空港

緯度: 34-53N, 経度: 033-38E, 海抜: 2m

現時点の気象観測

当レポートは23分前の01:30(UTC)に作成
西/南西の風 11kt
気温 14°C
湿度 100%
気圧 1008 hPa
視程10km以上
高度2000ftの雲はほとんどない
高度7000ftの雲は散在している
弱いにわか雨

METAR: LCLK 180130Z 24011KT 9999 -SHRA FEW020 SCT070 14/14 Q1008 NOSIG

時間: 03:53 (01:53 UTC)

予報

当レポートは2時間23分前の23:30(UTC)に作成
予報は18日の 00時(UTC)から 18日の 24時(UTC)まで有効
南西の風 15kt
視程10km以上
高度2000ftの雲は散在している
確率 30% :
18日の 00時(UTC)から 18日の 18時(UTC)まで一時的に
視程: 5000m
にわか雨
18日の 00時(UTC)から 18日の 03時(UTC)まで徐々に
南/南西の風 24kt、最大38ktの突風を伴う
確率 30% :
18日の 11時(UTC)から 18日の 18時(UTC)まで一時的に
視程: 2000m
高度2000ftの雲は散在している, 積乱雲.
激しい雷雨, 雨
18日の 14時(UTC)から 18日の 18時(UTC)まで徐々に
西/北西の風 15kt

TAF: LCLK 172330Z 1800/1824 23015KT 9999 SCT020 PROB30 TEMPO 1800/1818 5000 SHRA BECMG 1800/1803 21024G38KT PROB30 TEMPO 1811/1818 2000 TSRA SCT020CB BECMG 1814/1818 30015KT

4,000以上の空港の気象観測と天気予報(METAR報とTAF報)

利用可能な観測所は地図上に黄色い丸と赤い丸で示す。

丸の上にカーソルを重ねると観測所名を参照できる。

次にクリックすると気象観測と天気予報を参照できる。

マップの切り替え:黒色「×」印の緑ボタンをクリックして拡大、「-」印の緑ボタンをクリックして縮小、緑色の三角印をクリックして隣りの地図に切り替え


METAR-TAF: